Latest Weather Observations for Kuitpo

IDS60801

Issued at 6:35 pm CDT Monday 20 October 2014 (issued every 30 minutes, with the page automatically refreshed every 10 minutes)

About weather observations | Map of weather stations | Latest weather observations for SA | Other Formats
Station Details ID: 023887 Name: KUITPO FOREST RESERVE Lat: -35.17 Lon: 138.68 Height: 365.0 m
Data from the previous 72 hours. | See also: Recent months at Kuitpo
Date/Time
CDT
Temp
°C
App
Temp
°C
Dew
Point
Rel
Hum
%
Delta-T
°C
Wind Press
QNH
hPa
Press
MSL
hPa
Rain
since 9 am
mm
Dir
 
Spd
km/h
Gust
km/h
Spd
kts
Gust
kts
20/06:30pm 19.7 15.8 10.7 56 5.0 ESE 22 30 12 16 1021.1 1020.8 0.0
20/06:00pm 20.7 16.9 11.1 54 5.4 ESE 22 32 12 17 1021.0 1020.7 0.0
20/05:30pm 23.4 19.2 9.8 42 7.5 ESE 22 33 12 18 1021.1 1020.8 0.0
20/05:00pm 24.7 19.8 8.6 36 8.8 ESE 24 33 13 18 1021.1 1020.8 0.0
20/04:30pm 25.8 20.6 7.4 31 9.9 E 24 33 13 18 1021.2 1020.9 0.0
20/04:00pm 25.5 20.8 7.6 32 9.7 E 22 32 12 17 1021.3 1021.0 0.0
20/03:30pm 25.7 20.9 8.7 34 9.3 E 24 35 13 19 1021.7 1021.4 0.0
20/03:00pm 24.9 20.4 8.4 35 9.0 E 22 32 12 17 1022.1 1021.7 0.0
20/02:30pm 24.8 20.5 9.5 38 8.5 E 22 32 12 17 1022.5 1022.2 0.0
20/02:00pm 23.4 19.5 9.4 41 7.7 E 20 32 11 17 1022.9 1022.6 0.0
20/01:30pm 22.5 18.0 10.0 45 6.9 E 24 32 13 17 1023.1 1022.8 0.0
20/01:00pm 21.6 16.7 10.1 48 6.3 E 26 35 14 19 1023.1 1022.8 0.0
20/12:30pm 20.0 14.6 9.6 51 5.6 E 28 37 15 20 1023.4 1023.1 0.0
20/12:00pm 19.5 14.7 10.2 55 5.1 E 26 37 14 20 1023.6 1023.3 0.0
20/11:30am 18.8 13.9 10.1 57 4.7 E 26 35 14 19 1023.8 1023.5 0.0
20/11:00am 17.9 12.8 10.5 62 4.0 E 28 39 15 21 1024.2 1023.9 0.0
20/10:30am 16.3 10.6 9.7 65 3.5 E 30 41 16 22 1024.2 1023.9 0.0
20/10:00am 14.7 9.2 9.3 70 2.8 E 28 41 15 22 1024.3 1024.0 0.0
20/09:30am 14.0 7.8 9.2 73 2.5 E 32 44 17 24 1024.4 1024.1 0.0
20/09:00am 12.8 6.3 9.1 78 1.9 E 33 46 18 25 1024.5 1024.3 0.0
20/08:30am 11.7 4.8 8.9 83 1.4 E 35 48 19 26 1024.4 1024.1 0.0
20/08:00am 11.0 4.5 9.1 88 1.0 E 33 46 18 25 1024.2 1023.9 0.0
20/07:30am 10.1 3.9 9.5 96 0.3 E 32 39 17 21 1024.0 1023.7 0.0
20/07:00am 9.7 4.0 9.7 100 0.0 E 30 37 16 20 1023.7 1023.4 0.0
20/06:30am 9.7 3.4 9.7 100 0.0 E 33 43 18 23 1023.6 1023.3 0.0
20/06:00am 9.7 3.0 9.7 100 0.0 E 35 46 19 25 1023.3 1023.0 0.0
20/05:30am 9.8 3.1 9.8 100 0.0 E 35 44 19 24 1023.1 1022.8 0.0
20/05:00am 9.9 3.6 9.8 99 0.1 E 33 46 18 25 1023.1 1022.8 0.0
20/04:30am 10.1 4.3 9.6 97 0.3 E 30 41 16 22 1022.9 1022.6 0.0
20/04:00am 10.2 4.1 9.6 96 0.3 E 32 39 17 21 1022.7 1022.4 0.0
20/03:30am 10.4 4.7 9.8 96 0.3 E 30 41 16 22 1022.8 1022.5 0.0
20/03:00am 10.6 4.5 9.8 95 0.4 E 32 41 17 22 1023.1 1022.8 0.0
20/02:30am 10.8 5.0 9.6 92 0.6 E 30 39 16 21 1023.2 1022.9 0.0
20/02:00am 11.0 4.9 9.9 93 0.6 ESE 32 44 17 24 1023.3 1023.0 0.0
20/01:30am 11.3 5.4 10.5 95 0.4 ESE 32 46 17 25 1023.4 1023.1 0.0
20/01:04am 11.5 5.8 11.3 99 0.1 ESE 32 50 17 27 1023.4 1023.1 0.0
20/01:00am 11.5 6.2 11.2 98 0.2 ESE 30 44 16 24 1023.4 1023.1 0.0
20/12:30am 11.8 6.7 11.8 100 0.0 ESE 30 43 16 23 1023.6 1023.3 0.0
20/12:25am 11.8 6.7 11.8 100 0.0 ESE 30 48 16 26 1023.6 1023.3 0.0
20/12:00am 11.9 6.4 11.9 100 0.0 ESE 32 46 17 25 1023.6 1023.3 0.0
 
Date/Time
CDT
Temp
°C
App
Temp
°C
Dew
Point
Rel
Hum
%
Delta-T
°C
Wind Press
QNH
hPa
Press
MSL
hPa
Rain
since 9 am
mm
Dir
 
Spd
km/h
Gust
km/h
Spd
kts
Gust
kts
19/11:30pm 11.9 7.9 11.9 100 0.0 SE 24 43 13 23 1023.6 1023.3 0.0
19/11:00pm 11.8 6.7 11.8 100 0.0 SE 30 44 16 24 1023.4 1023.1 0.0
19/10:30pm 11.7 6.2 11.7 100 0.0 SE 32 46 17 25 1023.2 1022.9 0.0
19/10:13pm 11.6 6.8 11.6 100 0.0 SE 28 46 15 25 1023.4 1023.1 0.0
19/10:00pm 11.6 7.2 11.6 100 0.0 SE 26 48 14 26 1023.5 1023.2 0.0
19/09:44pm 11.7 6.9 11.5 99 0.1 SE 28 46 15 25 1023.3 1023.0 0.0
19/09:30pm 11.7 6.4 11.4 98 0.2 SE 30 44 16 24 1023.3 1023.0 0.0
19/09:21pm 11.7 6.8 11.2 97 0.3 SE 28 46 15 25 1023.1 1022.8 0.0
19/09:00pm 11.7 7.1 11.2 97 0.3 SE 26 44 14 24 1023.0 1022.7 0.0
19/08:30pm 12.3 7.0 9.9 85 1.2 SE 28 39 15 21 1023.0 1022.7 0.0
19/08:00pm 12.0 7.7 10.6 91 0.7 SE 24 35 13 19 1022.8 1022.5 0.0
19/07:30pm 12.1 7.1 11.0 93 0.6 SE 28 43 15 23 1022.3 1022.0 0.0
19/07:00pm 12.7 6.8 11.3 91 0.8 SE 33 46 18 25 1022.0 1021.6 0.0
19/06:42pm 13.0 8.1 11.2 89 1.0 SE 28 46 15 25 1021.8 1021.5 0.0
19/06:30pm 13.2 7.6 11.4 89 1.0 SE 32 46 17 25 1021.8 1021.5 0.0
19/06:14pm 13.8 8.1 11.3 85 1.4 SSE 32 50 17 27 1021.7 1021.4 0.0
19/06:00pm 14.3 10.2 11.5 83 1.5 SSE 24 41 13 22 1021.8 1021.5 0.0
19/05:30pm 16.1 12.3 12.5 79 2.0 SSE 24 39 13 21 1021.4 1021.1 0.0
19/05:00pm 17.7 14.2 12.2 70 3.1 SSE 22 41 12 22 1021.0 1020.7 0.0
19/04:30pm 21.0 18.1 12.9 60 4.7 SSE 20 32 11 17 1020.8 1020.5 0.0
19/04:00pm 26.2 23.9 11.9 41 8.3 SW 15 32 8 17 1020.5 1020.2 0.0
19/03:30pm 26.4 23.1 2.3 21 11.9 SW 9 15 5 8 1020.5 1020.2 0.0
19/03:00pm 25.8 21.9 1.2 20 11.8 SW 11 17 6 9 1020.6 1020.3 0.0
19/02:30pm 26.2 22.2 2.8 22 11.6 SW 13 24 7 13 1020.8 1020.5 0.0
19/02:00pm 25.1 20.9 3.7 25 10.7 SW 15 24 8 13 1020.9 1020.6 0.0
19/01:30pm 25.4 20.9 4.0 25 10.8 WSW 17 28 9 15 1021.0 1020.7 0.0
19/01:00pm 27.0 21.9 0.7 18 12.7 WNW 17 26 9 14 1020.8 1020.5 0.0
19/12:30pm 26.8 21.0 -0.3 17 12.8 WNW 20 35 11 19 1020.8 1020.5 0.0
19/12:00pm 27.4 21.6 0.2 17 13.0 NW 20 33 11 18 1020.6 1020.3 0.0
19/11:30am 25.9 19.4 0.5 19 12.1 NW 24 35 13 19 1020.6 1020.3 0.0
19/11:00am 25.0 18.5 0.5 20 11.6 NW 24 37 13 20 1020.5 1020.2 0.0
19/10:30am 24.2 17.4 0.5 21 11.1 NW 26 43 14 23 1020.5 1020.2 0.0
19/10:00am 24.0 16.8 -1.8 18 11.6 NW 26 35 14 19 1020.3 1020.0 0.0
19/09:30am 23.2 16.1 -1.0 20 10.9 NW 26 44 14 24 1020.2 1019.9 0.0
19/09:00am 22.1 15.0 -1.2 21 10.4 NNW 26 43 14 23 1020.0 1019.7 0.0
19/08:30am 21.8 15.0 -1.5 21 10.3 NNW 24 39 13 21 1019.8 1019.4 0.0
19/08:00am 22.1 15.3 -1.9 20 10.6 NNW 24 33 13 18 1019.7 1019.3 0.0
19/07:30am 22.2 15.3 -2.5 19 10.8 NNW 24 39 13 21 1019.2 1018.8 0.0
19/07:00am 22.3 16.2 -2.4 19 10.8 NNW 20 33 11 18 1018.7 1018.4 0.0
19/06:30am 22.6 16.4 -2.9 18 11.1 NNW 20 39 11 21 1018.3 1018.0 0.0
19/06:00am 21.6 15.8 -1.6 21 10.2 NNW 19 28 10 15 1017.8 1017.5 0.0
19/05:30am 21.7 15.8 -2.2 20 10.4 NNW 19 32 10 17 1017.7 1017.4 0.0
19/05:00am 21.1 15.7 -1.4 22 9.9 N 17 28 9 15 1017.7 1017.4 0.0
19/04:30am 20.7 15.7 -1.2 23 9.7 N 15 22 8 12 1017.7 1017.4 0.0
19/04:00am 20.4 15.5 -0.8 24 9.4 N 15 22 8 12 1018.2 1017.9 0.0
19/03:30am 19.5 15.0 -0.5 26 8.9 N 13 19 7 10 1018.0 1017.7 0.0
19/03:00am 18.3 14.2 -0.5 28 8.2 N 11 17 6 9 1018.5 1018.2 0.0
19/02:30am 18.8 14.2 -1.1 26 8.7 NNE 13 19 7 10 1018.6 1018.3 0.0
19/02:00am 19.4 14.8 -1.1 25 9.0 NNE 13 19 7 10 1018.8 1018.5 0.0
19/01:30am 19.8 14.4 -1.3 24 9.2 NE 17 24 9 13 1018.9 1018.6 0.0
19/01:00am 19.4 14.1 -0.6 26 8.9 ENE 17 24 9 13 1019.2 1018.8 0.0
19/12:30am 19.4 14.2 -0.1 27 8.7 ENE 17 20 9 11 1019.5 1019.1 0.0
19/12:00am 19.9 14.4 0.4 27 8.8 ENE 19 24 10 13 1019.6 1019.2 0.0
 
Date/Time
CDT
Temp
°C
App
Temp
°C
Dew
Point
Rel
Hum
%
Delta-T
°C
Wind Press
QNH
hPa
Press
MSL
hPa
Rain
since 9 am
mm
Dir
 
Spd
km/h
Gust
km/h
Spd
kts
Gust
kts
18/11:30pm 19.4 14.6 0.4 28 8.6 ENE 15 19 8 10 1019.8 1019.4 0.0
18/11:00pm 21.5 17.7 -0.5 23 9.9 ENE 9 13 5 7 1019.9 1019.6 0.0
18/10:30pm 21.7 17.9 -0.9 22 10.1 NE 9 13 5 7 1020.1 1019.8 0.0
18/10:00pm 22.2 18.4 -1.1 21 10.5 ENE 9 11 5 6 1020.0 1019.7 0.0
18/09:30pm 21.2 17.9 -0.1 24 9.6 E 7 7 4 4 1020.1 1019.8 0.0
18/09:00pm 22.7 19.5 -0.7 21 10.6 S 6 9 3 5 1020.1 1019.8 0.0
18/08:30pm 22.9 19.6 -1.2 20 10.8 SW 6 7 3 4 1020.0 1019.7 0.0
18/08:00pm 22.7 18.8 -1.4 20 10.8 W 9 15 5 8 1019.7 1019.3 0.0
18/07:30pm 24.1 20.1 -2.4 17 11.8 N 9 11 5 6 1019.3 1018.9 0.0
18/07:00pm 25.1 21.1 -2.5 16 12.4 NW 9 13 5 7 1019.2 1018.8 0.0
18/06:30pm 26.0 22.7 -0.1 18 12.3 NW 7 9 4 5 1019.1 1018.7 0.0
18/06:00pm 26.4 21.5 -3.2 14 13.2 WNW 13 20 7 11 1019.1 1018.7 0.0
18/05:30pm 27.6 22.8 -2.3 14 13.7 WNW 13 22 7 12 1019.1 1018.7 0.0
18/05:00pm 27.3 22.2 -1.6 15 13.4 NW 15 24 8 13 1018.8 1018.5 0.0
18/04:30pm 28.1 21.8 -0.9 15 13.7 WNW 22 33 12 18 1018.9 1018.6 0.0
18/04:00pm 27.8 22.7 -2.1 14 13.8 WNW 15 24 8 13 1019.2 1018.8 0.0
18/03:30pm 26.5 21.2 -0.5 17 12.6 NW 17 24 9 13 1019.4 1019.0 0.0
18/03:00pm 27.8 21.8 -1.2 15 13.5 WNW 20 32 11 17 1019.7 1019.3 0.0
18/02:30pm 27.4 21.0 -1.5 15 13.4 WNW 22 35 12 19 1020.0 1019.7 0.0
18/02:00pm 28.3 23.2 0.9 17 13.4 NW 17 28 9 15 1020.2 1019.9 0.0
18/01:30pm 27.8 22.3 0.5 17 13.1 WNW 19 32 10 17 1020.3 1020.0 0.0
18/01:00pm 28.1 22.4 -0.9 15 13.7 NNW 19 32 10 17 1020.2 1019.9 0.0
18/12:30pm 26.2 19.7 0.0 18 12.4 NNW 24 39 13 21 1020.4 1020.1 0.0
18/12:00pm 26.0 20.3 0.6 19 12.1 NW 20 33 11 18 1020.8 1020.5 0.0
18/11:30am 25.6 19.5 0.3 19 11.9 NW 22 35 12 19 1021.2 1020.9 0.0
18/11:00am 25.1 19.0 0.6 20 11.6 NW 22 37 12 20 1021.4 1021.1 0.0
18/10:30am 24.7 19.2 0.3 20 11.4 NW 19 26 10 14 1021.3 1021.0 0.0
18/10:00am 24.5 19.9 3.8 26 10.4 NNW 17 32 9 17 1021.1 1020.8 0.0
18/09:30am 23.6 18.7 1.9 24 10.4 N 17 26 9 14 1021.0 1020.7 0.0
18/09:00am 22.7 17.8 2.2 26 9.8 N 17 28 9 15 1020.7 1020.4 0.0
18/08:30am 21.8 16.9 2.0 27 9.4 N 17 32 9 17 1021.0 1020.7 0.0
18/08:00am 20.8 15.5 1.6 28 9.0 NNW 19 28 10 15 1021.2 1020.9 0.0
18/07:30am 19.8 14.4 1.3 29 8.5 NNW 19 28 10 15 1020.8 1020.5 0.0
18/07:00am 18.7 14.0 0.8 30 8.1 N 15 30 8 16 1020.4 1020.1 0.0
18/06:30am 16.3 12.0 1.2 36 6.7 NNE 13 19 7 10 1020.0 1019.7 0.0
18/06:00am 16.3 12.0 1.2 36 6.7 NNE 13 19 7 10 1019.7 1019.3 0.0
18/05:30am 16.0 11.7 1.0 36 6.6 NNE 13 17 7 9 1019.7 1019.3 0.0
18/05:00am 16.3 11.6 1.2 36 6.8 NE 15 22 8 12 1019.4 1019.0 0.0
18/04:30am 15.8 11.3 1.9 39 6.3 NE 15 22 8 12 1019.5 1019.1 0.0
18/04:00am 15.5 10.6 2.0 40 6.1 NE 17 24 9 13 1019.4 1019.0 0.0
18/03:30am 15.9 10.4 2.0 39 6.3 NE 20 30 11 16 1019.7 1019.3 0.0
18/03:00am 15.8 10.9 1.9 39 6.3 NE 17 24 9 13 1019.8 1019.4 0.0
18/02:30am 16.1 10.8 1.8 38 6.4 NE 19 28 10 15 1020.0 1019.7 0.0
18/02:00am 16.5 10.9 1.4 36 6.8 NE 20 28 11 15 1020.4 1020.1 0.0
18/01:30am 16.9 11.3 1.4 35 7.0 NE 20 30 11 16 1020.5 1020.2 0.0
18/01:00am 16.5 11.0 1.8 37 6.7 NE 20 30 11 16 1020.6 1020.3 0.0
18/12:30am 16.3 10.1 2.0 38 6.5 NE 24 33 13 18 1020.6 1020.3 0.0
18/12:00am 15.8 10.1 2.9 42 5.9 NE 22 32 12 17 1020.9 1020.6 0.0
 
Date/Time
CDT
Temp
°C
App
Temp
°C
Dew
Point
Rel
Hum
%
Delta-T
°C
Wind Press
QNH
hPa
Press
MSL
hPa
Rain
since 9 am
mm
Dir
 
Spd
km/h
Gust
km/h
Spd
kts
Gust
kts
17/11:30pm 16.2 10.4 2.2 39 6.4 NE 22 32 12 17 1021.1 1020.8 0.0
17/11:00pm 16.4 10.2 2.1 38 6.5 NE 24 30 13 16 1021.3 1021.0 0.0
17/10:30pm 17.2 12.4 2.8 38 6.7 ENE 17 22 9 12 1021.8 1021.5 0.0
17/10:00pm 18.9 13.8 3.1 35 7.5 E 19 22 10 12 1021.7 1021.4 0.0
17/09:30pm 18.3 13.6 3.4 37 7.1 E 17 20 9 11 1021.7 1021.4 0.0
17/09:00pm 18.3 13.5 2.6 35 7.3 E 17 19 9 10 1021.8 1021.5 0.0
17/08:30pm 18.4 13.6 0.5 30 8.0 E 15 20 8 11 1021.5 1021.2 0.0
17/08:00pm 19.3 15.4 -1.7 24 9.1 ESE 9 13 5 7 1021.3 1021.0 0.0
17/07:30pm 20.2 16.3 -1.6 23 9.5 E 9 9 5 5 1021.1 1020.8 0.0
17/07:00pm 21.5 19.4 -1.1 22 10.1 CALM 0 0 0 0 1021.2 1020.9 0.0

Other Formats:

Comma delimited format used in spreadsheet applications
http://www.bom.gov.au/fwo/IDS60801/IDS60801.94683.axf

JavaScript Object Notation format (JSON) in row-major order
http://www.bom.gov.au/fwo/IDS60801/IDS60801.94683.json